createdAt,value
2023-04-18T00:02:29.001Z,17.34
2023-04-18T00:05:30.678Z,17.32
2023-04-18T00:08:33.504Z,17.33
2023-04-18T00:11:35.096Z,17.30
2023-04-18T00:14:37.980Z,17.30
2023-04-18T00:17:39.727Z,17.28
2023-04-18T00:20:41.495Z,17.29
2023-04-18T00:23:43.174Z,17.26
2023-04-18T00:26:44.700Z,17.26
2023-04-18T00:29:46.959Z,17.23
2023-04-18T00:32:51.050Z,17.22
2023-04-18T00:35:53.817Z,17.22
2023-04-18T00:38:55.303Z,17.21
2023-04-18T00:41:56.845Z,17.18
2023-04-18T00:44:58.372Z,17.17
2023-04-18T00:48:00.312Z,17.17
2023-04-18T00:51:01.935Z,17.16
2023-04-18T00:54:06.427Z,17.15
2023-04-18T00:57:08.220Z,17.14
2023-04-18T01:00:10.378Z,17.13
2023-04-18T01:03:14.477Z,17.12
2023-04-18T01:06:16.620Z,17.11
2023-04-18T01:09:18.526Z,17.09
2023-04-18T01:12:20.126Z,17.09
2023-04-18T01:15:21.653Z,17.09
2023-04-18T01:18:24.266Z,17.07
2023-04-18T01:21:26.789Z,17.06
2023-04-18T01:24:29.729Z,17.05
2023-04-18T01:27:31.206Z,17.04
2023-04-18T01:30:35.266Z,17.03
2023-04-18T01:33:37.246Z,17.02
2023-04-18T01:36:39.006Z,17.01
2023-04-18T01:39:40.689Z,17.01
2023-04-18T01:42:42.268Z,17.01
2023-04-18T01:45:45.679Z,16.98
2023-04-18T01:48:47.123Z,16.98
2023-04-18T01:51:48.865Z,16.98
2023-04-18T01:54:50.715Z,16.97
2023-04-18T01:57:53.789Z,16.95
2023-04-18T02:00:57.682Z,16.95
2023-04-18T02:03:59.336Z,16.93
2023-04-18T02:07:01.004Z,16.93
2023-04-18T02:10:02.967Z,16.92
2023-04-18T02:13:04.817Z,16.91
2023-04-18T02:16:11.125Z,16.91
2023-04-18T02:19:12.647Z,16.88
2023-04-18T02:22:17.533Z,16.89
2023-04-18T02:25:19.021Z,16.87
2023-04-18T02:28:22.251Z,16.87
2023-04-18T02:31:23.824Z,16.86
2023-04-18T02:34:25.666Z,16.86
2023-04-18T02:37:27.233Z,16.86
2023-04-18T02:40:28.748Z,16.84
2023-04-18T02:43:30.483Z,16.84
2023-04-18T02:46:32.890Z,16.83
2023-04-18T02:49:35.291Z,16.83
2023-04-18T02:52:36.828Z,16.82
2023-04-18T02:55:38.384Z,16.82
2023-04-18T02:58:40.206Z,16.81
2023-04-18T03:02:00.262Z,16.82
2023-04-18T03:05:01.899Z,16.83
2023-04-18T03:08:03.557Z,16.82
2023-04-18T03:11:05.500Z,16.83
2023-04-18T03:14:07.077Z,16.85
2023-04-18T03:17:19.515Z,16.88
2023-04-18T03:20:23.940Z,16.89
2023-04-18T03:23:26.854Z,16.91
2023-04-18T03:26:28.766Z,16.93
2023-04-18T03:29:31.736Z,16.95
2023-04-18T03:32:35.114Z,16.98
2023-04-18T03:35:37.206Z,17.01
2023-04-18T03:38:40.452Z,17.03
2023-04-18T03:41:42.421Z,17.06
2023-04-18T03:44:44.542Z,17.07
2023-04-18T03:47:46.724Z,17.09
2023-04-18T03:50:49.799Z,17.10
2023-04-18T03:53:51.421Z,17.13
2023-04-18T03:56:53.097Z,17.14
2023-04-18T03:59:55.283Z,17.14
2023-04-18T04:02:56.943Z,17.15
2023-04-18T04:05:58.851Z,17.17
2023-04-18T04:09:00.885Z,17.16
2023-04-18T04:12:03.890Z,17.17
2023-04-18T04:15:06.031Z,17.16
2023-04-18T04:18:08.987Z,17.16
2023-04-18T04:21:13.824Z,17.16
2023-04-18T04:24:24.804Z,17.15
2023-04-18T04:27:26.875Z,17.14
2023-04-18T04:30:28.649Z,17.14
2023-04-18T04:33:33.187Z,17.14
2023-04-18T04:36:37.915Z,17.12
2023-04-18T04:39:41.302Z,17.11
2023-04-18T04:42:59.627Z,17.12
2023-04-18T04:46:07.759Z,17.11
2023-04-18T04:49:09.285Z,17.10
2023-04-18T04:52:11.330Z,17.09
2023-04-18T04:55:13.080Z,17.08
2023-04-18T04:58:16.424Z,17.07
2023-04-18T05:01:34.855Z,17.07
2023-04-18T05:04:36.565Z,17.07
2023-04-18T05:07:38.150Z,17.07
2023-04-18T05:10:39.711Z,17.08
2023-04-18T05:13:41.165Z,17.09
2023-04-18T05:16:42.752Z,17.10
2023-04-18T05:19:44.390Z,17.10
2023-04-18T05:22:45.877Z,17.12
2023-04-18T05:25:47.403Z,17.13
2023-04-18T05:28:49.120Z,17.14
2023-04-18T05:31:50.670Z,17.13
2023-04-18T05:34:52.236Z,17.13
2023-04-18T05:37:53.742Z,17.13
2023-04-18T05:40:55.725Z,17.15
2023-04-18T05:44:04.974Z,17.14
2023-04-18T05:47:18.628Z,17.14
2023-04-18T05:50:20.567Z,17.14
2023-04-18T05:53:22.062Z,17.14
2023-04-18T05:56:23.584Z,17.13
2023-04-18T05:59:26.672Z,17.13
2023-04-18T06:02:28.332Z,17.12
2023-04-18T06:05:30.287Z,17.12
2023-04-18T06:08:32.054Z,17.11
2023-04-18T06:11:35.472Z,17.11
2023-04-18T06:14:36.997Z,17.10
2023-04-18T06:17:38.585Z,17.09
2023-04-18T06:20:40.165Z,17.09
2023-04-18T06:23:41.617Z,17.08
2023-04-18T06:26:43.152Z,17.08
2023-04-18T06:29:44.669Z,17.06
2023-04-18T06:32:46.176Z,17.05
2023-04-18T06:35:47.671Z,17.05
2023-04-18T06:38:49.228Z,17.04
2023-04-18T06:41:50.805Z,17.04
2023-04-18T06:45:03.641Z,17.03
2023-04-18T06:48:05.864Z,17.02
2023-04-18T06:51:07.454Z,17.01
2023-04-18T06:54:08.957Z,17.00
2023-04-18T06:57:10.754Z,17.01
2023-04-18T07:00:12.888Z,17.00
2023-04-18T07:03:14.642Z,16.99
2023-04-18T07:06:16.309Z,16.97
2023-04-18T07:09:17.803Z,16.98
2023-04-18T07:12:19.437Z,16.97
2023-04-18T07:15:21.081Z,16.96
2023-04-18T07:18:34.282Z,16.95
2023-04-18T07:21:40.495Z,16.95
2023-04-18T07:24:42.161Z,16.94
2023-04-18T07:27:43.631Z,16.94
2023-04-18T07:30:45.130Z,16.93
2023-04-18T07:33:46.650Z,16.92
2023-04-18T07:36:48.371Z,16.93
2023-04-18T07:39:51.467Z,16.93
2023-04-18T07:42:53.261Z,16.92
2023-04-18T07:45:54.886Z,16.89
2023-04-18T07:48:56.363Z,16.89
2023-04-18T07:51:57.855Z,16.89
2023-04-18T07:54:59.305Z,16.89
2023-04-18T07:58:00.950Z,16.88
2023-04-18T08:01:02.714Z,16.88
2023-04-18T08:04:04.539Z,16.87
2023-04-18T08:07:06.164Z,16.88
2023-04-18T08:10:08.198Z,16.88
2023-04-18T08:13:09.749Z,16.87
2023-04-18T08:16:11.355Z,16.86
2023-04-18T08:19:13.205Z,16.85
2023-04-18T08:22:14.825Z,16.86
2023-04-18T08:25:16.489Z,16.87
2023-04-18T08:28:18.048Z,16.85
2023-04-18T08:31:19.635Z,16.86
2023-04-18T08:34:21.362Z,16.85
2023-04-18T08:37:22.897Z,16.86
2023-04-18T08:40:24.477Z,16.84
2023-04-18T08:43:25.998Z,16.84
2023-04-18T08:46:29.860Z,16.84
2023-04-18T08:49:31.541Z,16.84
2023-04-18T08:52:35.979Z,16.84
2023-04-18T08:55:37.882Z,16.83
2023-04-18T08:58:40.339Z,16.83
2023-04-18T09:02:01.405Z,16.84
2023-04-18T09:05:20.981Z,16.84
2023-04-18T09:08:24.288Z,16.83
2023-04-18T09:11:28.607Z,16.81
2023-04-18T09:14:30.370Z,16.81
2023-04-18T09:17:34.728Z,16.81
2023-04-18T09:20:39.159Z,16.82
2023-04-18T09:23:40.634Z,16.80
2023-04-18T09:26:42.131Z,16.80
2023-04-18T09:29:50.013Z,16.80
2023-04-18T09:32:57.788Z,16.81
2023-04-18T09:36:20.718Z,16.80
2023-04-18T09:39:27.952Z,16.81
2023-04-18T09:42:36.266Z,16.80
2023-04-18T09:45:38.666Z,16.79
2023-04-18T09:48:41.626Z,16.80
2023-04-18T09:51:46.632Z,16.80
2023-04-18T09:54:50.490Z,16.78
2023-04-18T09:57:53.866Z,16.79
2023-04-18T10:00:56.934Z,16.78
2023-04-18T10:04:02.011Z,16.79
2023-04-18T10:07:03.696Z,16.77
2023-04-18T10:10:05.747Z,16.77
2023-04-18T10:13:10.977Z,16.78
2023-04-18T10:16:12.748Z,16.77
2023-04-18T10:19:29.389Z,16.78
2023-04-18T10:22:31.798Z,16.77
2023-04-18T10:25:39.378Z,16.78
2023-04-18T10:29:01.563Z,16.77
2023-04-18T10:32:06.709Z,16.75
2023-04-18T10:35:08.649Z,16.74
2023-04-18T10:38:16.986Z,16.76
2023-04-18T10:41:22.612Z,16.73
2023-04-18T10:44:24.321Z,16.73
2023-04-18T10:47:25.956Z,16.72
2023-04-18T10:50:27.582Z,16.72
2023-04-18T10:53:29.061Z,16.72
2023-04-18T10:56:30.772Z,16.72
2023-04-18T10:59:34.109Z,16.72
2023-04-18T11:02:36.036Z,16.71
2023-04-18T11:05:37.691Z,16.71
2023-04-18T11:08:39.724Z,16.72
2023-04-18T11:11:42.398Z,16.70
2023-04-18T11:14:46.121Z,16.72
2023-04-18T11:17:59.328Z,16.72
2023-04-18T11:21:03.654Z,16.72
2023-04-18T11:24:05.400Z,16.71
2023-04-18T11:27:09.765Z,16.72
2023-04-18T11:30:13.059Z,16.72
2023-04-18T11:33:15.442Z,16.72
2023-04-18T11:36:17.072Z,16.72
2023-04-18T11:39:19.124Z,16.72
2023-04-18T11:42:21.107Z,16.71
2023-04-18T11:45:22.704Z,16.71
2023-04-18T11:48:33.567Z,16.71
2023-04-18T11:51:36.753Z,16.73
2023-04-18T11:54:45.322Z,16.74
2023-04-18T11:57:55.221Z,16.76
2023-04-18T12:00:56.762Z,16.75
2023-04-18T12:04:05.871Z,16.71
2023-04-18T12:07:07.562Z,16.70
2023-04-18T12:10:23.506Z,16.71
2023-04-18T12:13:27.195Z,16.68
2023-04-18T12:16:30.680Z,16.66
2023-04-18T12:19:32.915Z,16.61
2023-04-18T12:22:49.462Z,16.49
2023-04-18T12:25:58.831Z,16.46
2023-04-18T12:29:00.702Z,16.43
2023-04-18T12:32:02.377Z,16.42
2023-04-18T12:35:04.356Z,16.42
2023-04-18T12:38:05.936Z,16.43
2023-04-18T12:41:07.511Z,16.44
2023-04-18T12:44:09.280Z,16.46
2023-04-18T12:47:10.792Z,16.50
2023-04-18T12:50:19.006Z,16.53
2023-04-18T12:53:20.619Z,16.53
2023-04-18T12:56:22.094Z,16.57
2023-04-18T12:59:23.731Z,16.57
2023-04-18T13:02:26.391Z,16.60
2023-04-18T13:05:32.510Z,16.62
2023-04-18T13:08:35.263Z,16.61
2023-04-18T13:11:36.754Z,16.62
2023-04-18T13:14:38.509Z,16.64
2023-04-18T13:17:40.322Z,16.66
2023-04-18T13:20:41.891Z,16.66
2023-04-18T13:23:43.384Z,16.68
2023-04-18T13:26:44.903Z,16.69
2023-04-18T13:29:46.676Z,16.68
2023-04-18T13:32:48.211Z,16.69
2023-04-18T13:35:49.767Z,16.69
2023-04-18T13:38:51.594Z,16.70
2023-04-18T13:41:54.582Z,16.71
2023-04-18T13:44:56.131Z,16.71
2023-04-18T13:47:57.613Z,16.71
2023-04-18T13:50:59.151Z,16.72
2023-04-18T13:54:00.982Z,16.73
2023-04-18T13:57:03.295Z,16.73
2023-04-18T14:00:06.558Z,16.74
2023-04-18T14:03:13.638Z,16.78
2023-04-18T14:06:15.644Z,16.81
2023-04-18T14:09:17.873Z,16.84
2023-04-18T14:12:19.364Z,16.83
2023-04-18T14:15:21.431Z,16.82
2023-04-18T14:18:24.521Z,16.81
2023-04-18T14:21:26.504Z,16.83
2023-04-18T14:24:28.186Z,16.83
2023-04-18T14:27:30.085Z,16.82
2023-04-18T14:30:31.755Z,16.83
2023-04-18T14:33:34.096Z,16.86
2023-04-18T14:36:35.848Z,16.90
2023-04-18T14:39:38.011Z,16.91
2023-04-18T14:42:39.550Z,16.93
2023-04-18T14:45:41.000Z,16.97
2023-04-18T14:48:45.001Z,17.01
2023-04-18T14:51:46.558Z,17.03
2023-04-18T14:54:48.129Z,17.04
2023-04-18T14:57:49.682Z,17.06
2023-04-18T15:00:51.143Z,17.07
2023-04-18T15:03:53.047Z,17.08
2023-04-18T15:06:54.818Z,17.09
2023-04-18T15:09:56.410Z,17.10
2023-04-18T15:12:57.882Z,17.10
2023-04-18T15:15:59.361Z,17.11
2023-04-18T15:19:00.829Z,17.12
2023-04-18T15:22:02.912Z,17.11
2023-04-18T15:25:05.581Z,17.09
2023-04-18T15:28:07.051Z,17.07
2023-04-18T15:31:09.514Z,17.09
2023-04-18T15:34:11.806Z,17.11
2023-04-18T15:37:13.285Z,17.09
2023-04-18T15:40:16.385Z,17.11
2023-04-18T15:43:18.089Z,17.13
2023-04-18T15:46:19.588Z,17.13
2023-04-18T15:49:21.290Z,17.14
2023-04-18T15:52:22.838Z,17.12
2023-04-18T15:55:24.338Z,17.11
2023-04-18T15:58:29.886Z,17.11
2023-04-18T16:01:32.120Z,17.08
2023-04-18T16:04:33.793Z,17.08
2023-04-18T16:07:35.337Z,17.05
2023-04-18T16:10:37.406Z,17.06
2023-04-18T16:13:38.962Z,17.05
2023-04-18T16:16:40.447Z,17.05
2023-04-18T16:19:41.935Z,17.05
2023-04-18T16:22:43.443Z,17.05
2023-04-18T16:25:44.920Z,17.05
2023-04-18T16:28:48.083Z,17.06
2023-04-18T16:31:51.556Z,17.06
2023-04-18T16:34:53.279Z,17.08
2023-04-18T16:37:54.775Z,17.07
2023-04-18T16:41:01.483Z,17.07
2023-04-18T16:44:03.079Z,17.08
2023-04-18T16:47:05.932Z,17.08
2023-04-18T16:50:08.026Z,17.08
2023-04-18T16:53:09.574Z,17.07
2023-04-18T16:56:11.157Z,17.08
2023-04-18T16:59:12.683Z,17.07
2023-04-18T17:02:14.263Z,17.08
2023-04-18T17:05:15.847Z,17.07
2023-04-18T17:08:17.591Z,17.08
2023-04-18T17:11:20.720Z,17.08
2023-04-18T17:14:22.194Z,17.07
2023-04-18T17:17:23.893Z,17.08
2023-04-18T17:20:25.617Z,17.08
2023-04-18T17:23:27.220Z,17.08
2023-04-18T17:26:31.550Z,17.08
2023-04-18T17:29:33.009Z,17.07
2023-04-18T17:32:35.266Z,17.07
2023-04-18T17:35:36.893Z,17.07
2023-04-18T17:38:38.633Z,17.08
2023-04-18T17:41:40.216Z,17.07
2023-04-18T17:44:41.757Z,17.08
2023-04-18T17:47:43.270Z,17.06
2023-04-18T17:50:44.763Z,17.07
2023-04-18T17:53:46.515Z,17.08
2023-04-18T17:56:48.218Z,17.07
2023-04-18T17:59:49.677Z,17.07
2023-04-18T18:02:51.359Z,17.07
2023-04-18T18:05:54.901Z,17.07
2023-04-18T18:08:56.623Z,17.06
2023-04-18T18:11:58.612Z,17.07
2023-04-18T18:15:00.315Z,17.07
2023-04-18T18:18:01.914Z,17.07
2023-04-18T18:21:03.855Z,17.08
2023-04-18T18:24:06.108Z,17.07
2023-04-18T18:27:07.646Z,17.06
2023-04-18T18:30:09.354Z,17.07
2023-04-18T18:33:10.830Z,17.07
2023-04-18T18:36:12.324Z,17.07
2023-04-18T18:39:16.340Z,17.08
2023-04-18T18:42:18.053Z,17.07
2023-04-18T18:45:21.057Z,17.06
2023-04-18T18:48:23.843Z,17.08
2023-04-18T18:51:26.197Z,17.08
2023-04-18T18:54:28.071Z,17.08
2023-04-18T18:57:29.527Z,17.09
2023-04-18T19:00:31.008Z,17.09
2023-04-18T19:03:34.118Z,17.09
2023-04-18T19:06:35.628Z,17.10
2023-04-18T19:09:37.089Z,17.11
2023-04-18T19:12:38.544Z,17.12
2023-04-18T19:15:43.000Z,17.13
2023-04-18T19:18:49.073Z,17.13
2023-04-18T19:21:50.568Z,17.14
2023-04-18T19:24:52.137Z,17.15
2023-04-18T19:27:53.571Z,17.16
2023-04-18T19:30:55.165Z,17.17
2023-04-18T19:33:56.613Z,17.16
2023-04-18T19:36:58.129Z,17.16
2023-04-18T19:39:59.562Z,17.15
2023-04-18T19:43:01.050Z,17.16
2023-04-18T19:46:02.498Z,17.16
2023-04-18T19:49:04.049Z,17.16
2023-04-18T19:52:06.107Z,17.16
2023-04-18T19:55:07.941Z,17.16
2023-04-18T19:58:09.381Z,17.15
2023-04-18T20:01:12.061Z,17.16
2023-04-18T20:04:13.663Z,17.16
2023-04-18T20:07:15.211Z,17.17
2023-04-18T20:10:21.250Z,17.16
2023-04-18T20:13:22.730Z,17.16
2023-04-18T20:16:24.196Z,17.17
2023-04-18T20:19:26.675Z,17.16
2023-04-18T20:22:28.218Z,17.15
2023-04-18T20:25:29.776Z,17.15
2023-04-18T20:28:31.628Z,17.16
2023-04-18T20:31:33.084Z,17.14
2023-04-18T20:34:34.565Z,17.14
2023-04-18T20:37:36.642Z,17.14
2023-04-18T20:40:39.633Z,17.14
2023-04-18T20:43:43.365Z,17.13
2023-04-18T20:46:44.830Z,17.14
2023-04-18T20:49:46.321Z,17.13
2023-04-18T20:52:47.811Z,17.13
2023-04-18T20:55:49.321Z,17.12
2023-04-18T20:58:50.908Z,17.11
2023-04-18T21:01:52.502Z,17.11
2023-04-18T21:04:54.641Z,17.11
2023-04-18T21:07:56.191Z,17.11
2023-04-18T21:10:57.647Z,17.10
2023-04-18T21:13:59.225Z,17.09
2023-04-18T21:17:00.754Z,17.08
2023-04-18T21:20:02.340Z,17.08
2023-04-18T21:23:03.887Z,17.07
2023-04-18T21:26:05.369Z,17.06
2023-04-18T21:29:06.922Z,17.07
2023-04-18T21:32:08.470Z,17.05
2023-04-18T21:35:10.157Z,17.05
2023-04-18T21:38:11.682Z,17.04
2023-04-18T21:41:16.843Z,17.06
2023-04-18T21:44:18.876Z,17.04
2023-04-18T21:47:20.534Z,17.04
2023-04-18T21:50:22.106Z,17.03
2023-04-18T21:53:23.655Z,17.02
2023-04-18T21:56:25.199Z,17.02
2023-04-18T21:59:26.743Z,17.01
2023-04-18T22:02:28.303Z,17.01
2023-04-18T22:05:30.350Z,17.01
2023-04-18T22:08:34.509Z,16.99
2023-04-18T22:11:36.505Z,17.00
2023-04-18T22:14:38.040Z,16.99
2023-04-18T22:17:41.610Z,16.99
2023-04-18T22:20:43.729Z,16.99
2023-04-18T22:23:45.562Z,16.98
2023-04-18T22:26:47.024Z,16.99
2023-04-18T22:29:48.490Z,16.99
2023-04-18T22:32:50.112Z,16.98
2023-04-18T22:35:52.902Z,16.98
2023-04-18T22:38:54.371Z,16.99
2023-04-18T22:41:55.792Z,17.00
2023-04-18T22:44:57.506Z,17.01
2023-04-18T22:47:58.983Z,17.02
2023-04-18T22:51:01.775Z,17.05
2023-04-18T22:54:03.323Z,17.05
2023-04-18T22:57:04.761Z,17.07
2023-04-18T23:00:07.048Z,17.07
2023-04-18T23:03:08.668Z,17.06
2023-04-18T23:06:10.233Z,17.09
2023-04-18T23:09:11.723Z,17.10
2023-04-18T23:12:13.212Z,17.11
2023-04-18T23:15:14.705Z,17.12
2023-04-18T23:18:16.193Z,17.13
2023-04-18T23:21:17.922Z,17.14
2023-04-18T23:24:19.398Z,17.16
2023-04-18T23:27:20.932Z,17.17
2023-04-18T23:30:22.481Z,17.17
2023-04-18T23:33:23.976Z,17.19
2023-04-18T23:36:26.187Z,17.19
2023-04-18T23:39:27.774Z,17.20
2023-04-18T23:42:29.297Z,17.20
2023-04-18T23:45:31.044Z,17.19
2023-04-18T23:48:32.512Z,17.20
2023-04-18T23:51:33.964Z,17.21
2023-04-18T23:54:35.861Z,17.22
2023-04-18T23:57:37.356Z,17.23
